Mountainburg, Arkansas
Current Conditions -  °F | °C
As of 2:39 AM on Thursday 18 Dec 2014 (Local Time) from KFSM Reporting Station
Overcast Overcast  
Wind Chill: 31°   Ceiling: 3300
Heat Index: 37°   Visibility: 10mi
Dew Point: 34°   Wind: 8mph
Humidity: 89%   Direction: 80°E
Pressure: 30.19"   Gusts: NA
Location:  35.64°N, 94.17°W
Report Text: KFSM 180839Z AUTO 08007KT 10SM FEW007 OVC033 03/01 A3019 RMK AO2 T00280011
Loading
Personal Weather Stations






























Interactive Weather Map New forecast layout! Learn more

10-Day Weather Forecast

Advertisements
Track Severe Weather on mobile